Time;durP1;ratioP1;P1;durP2;ratioP2;P2;SDS_P1;SDS_P2;PMS_P1;PMS_P2;Temp;Humidity;BMP_temperature;BMP_pressure;BME280_temperature;BME280_humidity;BME280_pressure;Samples;Min_cycle;Max_cycle;Signal;HPM_P1;HPM_P2
2023/01/06 00:00:16;;;;;;;2.92;0.77;;;;;;;10.10;100.00;101872.47;5057441;27;97889;-29
2023/01/06 00:02:44;;;;;;;3.80;1.00;;;;;;;10.13;100.00;101869.59;5057408;27;96728;-28
2023/01/06 00:05:09;;;;;;;3.80;1.23;;;;;;;10.13;100.00;101872.31;5057753;27;96773;-29
2023/01/06 00:07:36;;;;;;;3.20;1.17;;;;;;;10.12;100.00;101867.84;5057398;27;99661;-28
2023/01/06 00:10:01;;;;;;;1.73;1.10;;;;;;;10.12;100.00;101867.84;5055827;27;101220;-29
2023/01/06 00:12:26;;;;;;;2.58;1.10;;;;;;;10.10;100.00;101867.91;5057735;27;96586;-30
2023/01/06 00:14:52;;;;;;;1.67;0.95;;;;;;;10.12;100.00;101868.72;5057148;27;96928;-29
2023/01/06 00:17:17;;;;;;;1.13;0.80;;;;;;;10.13;100.00;101865.09;5057240;27;99507;-29
2023/01/06 00:19:43;;;;;;;1.67;0.98;;;;;;;10.09;100.00;101849.94;5057616;27;97893;-29
2023/01/06 00:22:08;;;;;;;1.42;0.80;;;;;;;10.10;100.00;101854.38;5057454;27;96610;-28
2023/01/06 00:24:33;;;;;;;4.35;1.13;;;;;;;10.10;100.00;101848.97;5057627;27;96782;-28
2023/01/06 00:26:59;;;;;;;3.38;0.85;;;;;;;10.11;100.00;101852.56;5056177;27;97976;-28
2023/01/06 00:29:25;;;;;;;3.25;0.90;;;;;;;10.09;100.00;101836.38;5057035;27;97904;-29
2023/01/06 00:31:50;;;;;;;1.02;0.73;;;;;;;10.12;100.00;101846.19;5055996;27;96947;-29
2023/01/06 00:34:16;;;;;;;1.45;0.80;;;;;;;10.14;100.00;101852.44;5057420;27;96840;-28
2023/01/06 00:36:41;;;;;;;0.65;0.60;;;;;;;10.13;100.00;101846.16;5056228;27;96886;-28
2023/01/06 00:39:07;;;;;;;2.85;1.20;;;;;;;10.12;100.00;101849.78;5056778;27;98530;-28
2023/01/06 00:44:16;;;;;;;3.40;1.70;;;;;;;10.12;100.00;101844.38;5057718;27;96751;-29
2023/01/06 00:46:41;;;;;;;7.20;1.00;;;;;;;10.12;100.00;101844.38;5056917;27;97469;-30
2023/01/06 00:49:06;;;;;;;1.67;0.98;;;;;;;10.09;100.00;101841.81;5056917;27;97765;-29
2023/01/06 00:51:34;;;;;;;1.20;0.73;;;;;;;10.12;100.00;101832.66;5056526;27;96598;-29
2023/01/06 00:54:00;;;;;;;1.45;0.73;;;;;;;10.13;100.00;101831.69;5055655;27;96898;-29
2023/01/06 00:56:25;;;;;;;5.47;1.23;;;;;;;10.12;99.98;101833.53;5056365;27;99393;-29
2023/01/06 00:58:50;;;;;;;1.42;0.80;;;;;;;10.09;99.92;101819.28;5056932;27;97691;-30
2023/01/06 01:01:16;;;;;;;3.65;1.05;;;;;;;10.09;99.69;101819.28;5057082;27;96432;-29
2023/01/06 01:03:41;;;;;;;0.73;0.60;;;;;;;10.09;99.67;101800.31;5057083;27;96746;-29
2023/01/06 01:06:08;;;;;;;2.20;0.77;;;;;;;10.09;99.56;101816.56;5057028;27;97439;-29
2023/01/06 01:08:34;;;;;;;1.52;0.88;;;;;;;10.12;99.54;101811.88;5038546;27;101083;-29
2023/01/06 01:11:05;;;;;;;1.75;1.17;;;;;;;10.12;99.62;101816.41;5054443;27;96520;-28
2023/01/06 01:13:30;;;;;;;4.32;1.27;;;;;;;10.10;99.37;101802.94;5055257;27;96791;-29
2023/01/06 01:15:55;;;;;;;3.92;0.85;;;;;;;10.10;99.14;101804.78;5055928;27;98383;-29
2023/01/06 01:18:21;;;;;;;2.08;0.75;;;;;;;10.11;99.22;101812.84;5056226;27;99452;-28
2023/01/06 01:20:46;;;;;;;1.88;0.77;;;;;;;10.13;99.13;101819.06;5056501;27;96545;-29
2023/01/06 01:23:12;;;;;;;1.65;1.02;;;;;;;10.11;99.00;101815.56;5056591;27;96751;-30
2023/01/06 01:25:39;;;;;;;3.58;1.00;;;;;;;10.13;98.86;101823.59;5054542;27;100784;-29
2023/01/06 01:28:05;;;;;;;2.08;0.82;;;;;;;10.14;98.37;101814.53;5055894;27;99040;-29
2023/01/06 01:30:30;;;;;;;1.98;1.10;;;;;;;10.12;98.57;101803.75;5056282;27;96471;-29
2023/01/06 01:32:56;;;;;;;2.70;1.20;;;;;;;10.13;98.64;101808.25;5056984;27;96787;-29
2023/01/06 01:35:21;;;;;;;3.58;1.13;;;;;;;10.15;98.80;101803.66;5056042;27;97489;-29
2023/01/06 01:37:46;;;;;;;3.90;1.10;;;;;;;10.13;98.50;101796.50;5055862;27;102855;-28
2023/01/06 01:40:12;;;;;;;1.45;0.90;;;;;;;10.14;98.33;101804.56;5055248;27;96820;-28
2023/01/06 01:42:37;;;;;;;2.10;0.85;;;;;;;10.15;98.13;101802.75;5056267;27;96724;-29
2023/01/06 01:45:20;;;;;;;1.83;1.00;;;;;;;10.16;98.00;101793.69;5055755;27;99373;-29
2023/01/06 01:47:54;;;;;;;0.98;0.73;;;;;;;10.14;98.04;101790.16;5054479;27;98849;-28
2023/01/06 01:50:51;;;;;;;5.07;0.82;;;;;;;10.10;97.77;101784.00;5054740;27;96589;-29
2023/01/06 01:53:33;;;;;;;0.68;0.50;;;;;;;10.09;97.80;101782.25;5055669;27;96897;-29
2023/01/06 01:56:02;;;;;;;0.75;0.65;;;;;;;10.10;97.58;101767.75;5039065;27;101479;-29
2023/01/06 01:58:31;;;;;;;3.28;0.70;;;;;;;10.08;97.54;101764.25;5054749;27;99127;-29
2023/01/06 02:00:56;;;;;;;8.30;0.80;;;;;;;10.10;97.58;101766.88;5054469;27;96668;-30
2023/01/06 02:03:24;;;;;;;1.27;0.47;;;;;;;10.09;97.14;101760.59;5055994;27;96816;-28
2023/01/06 02:05:54;;;;;;;2.80;0.80;;;;;;;10.07;96.87;101754.38;5053806;27;100876;-28
2023/01/06 02:08:38;;;;;;;1.13;0.80;;;;;;;10.08;96.53;101753.44;5054141;27;100841;-28
2023/01/06 02:11:05;;;;;;;3.63;0.90;;;;;;;10.10;97.01;101740.69;5054510;27;96639;-28
2023/01/06 02:13:33;;;;;;;4.30;0.60;;;;;;;10.10;96.74;101729.84;5054299;27;96849;-29
2023/01/06 02:16:23;;;;;;;0.63;0.40;;;;;;;10.09;95.99;101732.66;5053948;27;100984;-28
2023/01/06 02:18:54;;;;;;;1.92;0.85;;;;;;;10.11;96.43;101737.03;5054664;27;98126;-29
2023/01/06 02:21:34;;;;;;;0.98;0.45;;;;;;;10.13;96.19;101737.84;5053127;27;96771;-29
2023/01/06 02:24:24;;;;;;;1.27;0.73;;;;;;;10.14;95.88;101734.19;5055991;27;96400;-29
2023/01/06 02:27:11;;;;;;;1.38;0.50;;;;;;;10.10;95.49;101727.16;5054632;27;98967;-28
2023/01/06 02:30:08;;;;;;;0.90;0.35;;;;;;;10.13;95.19;101735.16;5053855;27;101067;-28
2023/01/06 02:32:39;;;;;;;2.40;0.70;;;;;;;10.12;94.93;101722.53;5054800;27;96643;-29
2023/01/06 02:35:23;;;;;;;0.22;0.22;;;;;;;10.13;94.91;101734.25;5053968;27;96704;-28
2023/01/06 02:38:16;;;;;;;0.40;0.30;;;;;;;10.12;94.75;101719.84;5055132;27;98047;-29
2023/01/06 02:41:00;;;;;;;3.35;0.57;;;;;;;10.13;94.96;101718.00;5053381;27;100936;-29
2023/01/06 02:44:00;;;;;;;1.33;0.50;;;;;;;10.14;94.68;101717.94;5053992;27;96752;-28
2023/01/06 02:46:34;;;;;;;2.00;0.50;;;;;;;10.14;94.50;101698.13;5014361;27;96822;-29
2023/01/06 02:49:18;;;;;;;3.60;0.80;;;;;;;10.15;94.63;101694.44;5054886;27;99381;-29
2023/01/06 02:51:57;;;;;;;0.63;0.43;;;;;;;10.13;94.09;101671.97;5055693;27;97246;-29
2023/01/06 02:54:40;;;;;;;1.05;0.77;;;;;;;10.13;93.88;101681.00;5053929;27;96661;-29
2023/01/06 02:57:21;;;;;;;0.98;0.40;;;;;;;10.13;94.07;101666.56;5055370;27;96607;-28
2023/01/06 03:00:19;;;;;;;1.48;0.50;;;;;;;10.15;93.63;101667.38;5054526;27;97491;-29
2023/01/06 03:02:52;;;;;;;1.15;0.28;;;;;;;10.11;93.44;101658.53;5021125;27;97821;-29
2023/01/06 03:05:20;;;;;;;0.50;0.30;;;;;;;10.11;93.48;101653.13;5053728;27;96641;-28
2023/01/06 03:07:47;;;;;;;0.32;0.30;;;;;;;10.12;93.98;101641.34;5053513;27;96865;-30
2023/01/06 03:10:16;;;;;;;0.40;0.30;;;;;;;10.13;92.84;101661.16;5053188;27;101253;-29
2023/01/06 03:12:52;;;;;;;1.98;0.57;;;;;;;10.15;93.74;101665.56;5054586;27;98723;-29
2023/01/06 03:15:17;;;;;;;1.63;0.28;;;;;;;10.16;94.02;101661.91;5053463;27;96758;-28
2023/01/06 03:17:43;;;;;;;0.65;0.40;;;;;;;10.14;93.59;101654.81;5055412;27;96778;-28
2023/01/06 03:20:09;;;;;;;0.47;0.38;;;;;;;10.17;93.12;101650.09;5053149;27;101221;-28
2023/01/06 03:22:37;;;;;;;0.57;0.30;;;;;;;10.16;93.03;101645.66;5053024;27;100714;-28
2023/01/06 03:25:05;;;;;;;0.35;0.25;;;;;;;10.18;93.82;101653.72;5052898;27;96650;-28
2023/01/06 03:27:31;;;;;;;0.32;0.32;;;;;;;10.16;93.30;101642.09;5054417;27;96864;-29
2023/01/06 03:29:56;;;;;;;0.38;0.38;;;;;;;10.15;93.03;101643.91;5054477;27;98102;-28
2023/01/06 03:32:28;;;;;;;1.08;0.50;;;;;;;10.16;93.30;101637.53;5054490;27;97780;-28
2023/01/06 03:35:00;;;;;;;1.20;0.47;;;;;;;10.16;93.18;101632.13;5056590;27;96718;-28
2023/01/06 03:37:33;;;;;;;1.45;0.55;;;;;;;10.17;93.47;101616.75;5058572;27;96796;-29
2023/01/06 03:40:14;;;;;;;0.38;0.38;;;;;;;10.15;93.31;101630.38;5057788;27;97994;-28
2023/01/06 03:45:52;;;;;;;1.08;0.60;;;;;;;10.13;93.39;101610.63;5058549;27;96440;-28
2023/01/06 03:48:45;;;;;;;0.43;0.38;;;;;;;10.16;93.63;101615.88;5056793;27;96703;-29
2023/01/06 03:51:35;;;;;;;0.60;0.40;;;;;;;10.17;93.58;101617.63;5057480;27;98036;-29
2023/01/06 03:54:24;;;;;;;1.10;0.45;;;;;;;10.18;93.41;101619.41;5057704;27;97896;-28
2023/01/06 03:56:55;;;;;;;0.70;0.57;;;;;;;10.18;93.54;101622.09;5058301;27;96738;-29
2023/01/06 03:59:25;;;;;;;0.38;0.38;;;;;;;10.18;93.35;101616.69;5056511;27;96792;-29
2023/01/06 04:01:50;;;;;;;1.17;0.47;;;;;;;10.18;93.44;101616.69;5056166;27;101273;-30
2023/01/06 04:04:17;;;;;;;0.68;0.60;;;;;;;10.20;93.31;101617.50;5057490;27;97727;-29
2023/01/06 04:06:42;;;;;;;2.13;1.15;;;;;;;10.21;93.52;101605.69;5056357;27;96570;-28
2023/01/06 04:09:08;;;;;;;0.98;0.57;;;;;;;10.19;93.44;101604.91;5057957;27;96826;-29
2023/01/06 04:14:17;;;;;;;1.25;0.57;;;;;;;10.23;93.53;101621.00;5057095;27;97030;-29
2023/01/06 04:16:42;;;;;;;0.98;0.52;;;;;;;10.18;93.50;101605.00;5056723;27;96658;-29
2023/01/06 04:19:08;;;;;;;1.35;0.50;;;;;;;10.17;93.65;101601.38;5057702;27;96799;-29
2023/01/06 04:21:33;;;;;;;0.85;0.50;;;;;;;10.15;93.76;101600.59;5057037;27;98051;-29
2023/01/06 04:23:58;;;;;;;0.95;0.63;;;;;;;10.15;93.74;101591.56;5057033;27;107467;-29
2023/01/06 04:26:24;;;;;;;2.22;0.98;;;;;;;10.16;93.59;101598.75;5057075;27;96586;-28
2023/01/06 04:28:49;;;;;;;1.83;0.50;;;;;;;10.14;93.36;101590.69;5057731;27;96825;-30
2023/01/06 04:31:15;;;;;;;1.00;0.50;;;;;;;10.15;93.74;101589.78;5056916;27;97953;-29
2023/01/06 04:33:40;;;;;;;2.45;0.35;;;;;;;10.13;93.42;101583.53;5057258;27;98871;-28
2023/01/06 04:36:06;;;;;;;2.00;0.75;;;;;;;10.15;93.61;101584.34;5057526;27;96729;-28
2023/01/06 04:38:31;;;;;;;0.80;0.45;;;;;;;10.15;93.84;101587.06;5057174;27;96876;-29
2023/01/06 04:40:56;;;;;;;1.08;0.57;;;;;;;10.15;93.62;101583.44;5056290;27;97977;-28
2023/01/06 04:43:23;;;;;;;1.23;0.55;;;;;;;10.14;93.71;101576.28;5056772;27;106745;-29
2023/01/06 04:45:48;;;;;;;1.33;0.35;;;;;;;10.09;93.88;101571.09;5055777;27;96625;-28
2023/01/06 04:48:14;;;;;;;1.20;0.57;;;;;;;10.13;94.24;101570.00;5057122;27;96850;-28
2023/01/06 04:50:39;;;;;;;0.80;0.40;;;;;;;10.09;94.39;101562.13;5056975;27;97956;-28
2023/01/06 04:53:06;;;;;;;2.80;0.50;;;;;;;10.07;94.16;101567.59;5056999;27;97755;-28
2023/01/06 04:55:31;;;;;;;2.42;0.70;;;;;;;10.09;94.44;101578.34;5055649;27;98657;-28
2023/01/06 04:57:57;;;;;;;0.85;0.50;;;;;;;10.11;94.29;101562.91;5057399;27;96681;-28
2023/01/06 05:00:23;;;;;;;1.25;0.57;;;;;;;10.11;93.84;101563.78;5054945;27;101029;-29
2023/01/06 05:02:48;;;;;;;1.00;0.60;;;;;;;10.12;94.28;101560.13;5056639;27;97369;-28
2023/01/06 05:05:14;;;;;;;2.13;0.32;;;;;;;10.10;94.78;101548.47;5056342;27;96564;-28
2023/01/06 05:07:40;;;;;;;0.98;0.57;;;;;;;10.10;94.97;101540.38;5038541;27;96813;-28
2023/01/06 05:10:07;;;;;;;0.68;0.32;;;;;;;10.06;95.41;101546.00;5056505;27;97508;-29
2023/01/06 05:12:34;;;;;;;0.25;0.22;;;;;;;10.04;95.91;101547.94;5056365;27;99654;-28
2023/01/06 05:14:59;;;;;;;3.88;0.50;;;;;;;10.00;96.08;101550.75;5055336;27;96770;-29
2023/01/06 05:17:25;;;;;;;1.13;0.55;;;;;;;9.99;96.02;101549.00;5056701;27;96900;-29
2023/01/06 05:19:50;;;;;;;0.85;0.35;;;;;;;9.96;96.70;101560.00;5056541;27;97911;-28
2023/01/06 05:22:16;;;;;;;0.95;0.57;;;;;;;9.94;96.47;101552.91;5056197;27;99414;-28
2023/01/06 05:24:41;;;;;;;2.15;0.43;;;;;;;9.90;97.14;101545.88;5056783;27;96647;-28
2023/01/06 05:27:07;;;;;;;0.88;0.52;;;;;;;9.90;96.86;101548.56;5056018;27;96757;-30
2023/01/06 05:29:33;;;;;;;0.30;0.30;;;;;;;9.89;97.13;101546.81;5055570;27;97334;-29
2023/01/06 05:31:58;;;;;;;0.40;0.40;;;;;;;9.90;97.15;101554.88;5056214;27;97794;-29
2023/01/06 05:34:24;;;;;;;0.30;0.30;;;;;;;9.90;97.23;101556.69;5056398;27;96582;-28
2023/01/06 05:36:49;;;;;;;0.35;0.28;;;;;;;9.90;97.63;101557.56;5056608;27;96734;-28
2023/01/06 05:39:14;;;;;;;0.82;0.40;;;;;;;9.91;97.27;101547.63;5055857;27;99214;-29
2023/01/06 05:41:40;;;;;;;1.60;0.40;;;;;;;9.90;97.32;101549.44;5056141;27;97740;-28
2023/01/06 05:44:05;;;;;;;0.73;0.30;;;;;;;9.92;97.43;101541.28;5056103;27;98101;-28
2023/01/06 05:46:30;;;;;;;0.73;0.40;;;;;;;9.92;97.25;101557.50;5056757;27;96757;-28
2023/01/06 05:48:56;;;;;;;1.02;0.50;;;;;;;9.93;97.17;101560.13;5056094;27;98409;-28
2023/01/06 05:51:21;;;;;;;0.35;0.22;;;;;;;9.94;96.98;101552.91;5055975;27;97279;-28
2023/01/06 05:53:47;;;;;;;0.57;0.40;;;;;;;9.96;97.09;101559.09;5055746;27;96574;-29
2023/01/06 05:56:18;;;;;;;0.45;0.35;;;;;;;9.95;97.58;101558.22;5054337;27;96799;-28
2023/01/06 05:58:46;;;;;;;6.10;0.70;;;;;;;9.93;97.30;101552.00;5054150;27;101460;-29
2023/01/06 06:01:23;;;;;;;1.45;0.30;;;;;;;9.96;97.66;101570.81;5054319;27;100676;-28
2023/01/06 06:03:49;;;;;;;0.30;0.22;;;;;;;9.91;98.00;101567.44;5056095;27;96952;-28
2023/01/06 06:06:16;;;;;;;1.15;0.43;;;;;;;9.92;98.28;101566.50;5054505;27;96808;-29
2023/01/06 06:08:41;;;;;;;2.53;1.02;;;;;;;9.89;98.72;101563.94;5055632;27;97917;-29
2023/01/06 06:11:09;;;;;;;0.43;0.20;;;;;;;9.85;99.64;101574.97;5055779;27;97633;-29
2023/01/06 06:13:35;;;;;;;0.52;0.30;;;;;;;9.84;99.76;101575.91;5054466;27;96708;-29
2023/01/06 06:16:08;;;;;;;0.20;0.20;;;;;;;9.86;99.88;101579.44;5054336;27;96792;-28
2023/01/06 06:18:39;;;;;;;1.17;0.73;;;;;;;9.81;100.00;101576.94;5053515;27;100951;-28
2023/01/06 06:21:04;;;;;;;1.40;0.57;;;;;;;9.85;100.00;101588.50;5053832;27;100835;-28
2023/01/06 06:23:30;;;;;;;0.80;0.60;;;;;;;9.84;99.92;101575.91;5055642;27;96533;-28
2023/01/06 06:25:56;;;;;;;1.13;0.63;;;;;;;9.82;99.88;101577.81;5053885;27;96881;-29
2023/01/06 06:28:21;;;;;;;0.85;0.38;;;;;;;9.82;100.00;101577.81;5055478;27;97439;-28
2023/01/06 06:30:47;;;;;;;0.82;0.77;;;;;;;9.81;100.00;101576.06;5055177;27;98775;-29
2023/01/06 06:33:12;;;;;;;0.93;0.52;;;;;;;9.83;100.00;101602.09;5055594;27;96590;-28
2023/01/06 06:35:37;;;;;;;0.52;0.50;;;;;;;9.81;100.00;101605.81;5055718;27;96884;-29
2023/01/06 06:38:03;;;;;;;1.10;1.00;;;;;;;9.82;100.00;101604.88;5055347;27;97514;-29
2023/01/06 06:40:28;;;;;;;1.25;0.70;;;;;;;9.80;100.00;101613.06;5054648;27;98562;-28
2023/01/06 06:42:53;;;;;;;0.63;0.60;;;;;;;9.75;100.00;101616.00;5054976;27;96703;-28
2023/01/06 06:45:18;;;;;;;1.73;1.08;;;;;;;9.74;100.00;101627.75;5055013;27;98666;-28
2023/01/06 06:47:44;;;;;;;3.58;0.82;;;;;;;9.75;100.00;101653.00;5055016;27;97864;-29
2023/01/06 06:50:10;;;;;;;0.63;0.60;;;;;;;9.74;100.00;101651.22;5055244;27;97819;-28
2023/01/06 06:52:36;;;;;;;0.95;0.70;;;;;;;9.75;100.00;101644.88;5053898;27;96571;-28
2023/01/06 06:55:01;;;;;;;1.83;1.02;;;;;;;9.76;100.00;101639.38;5055045;27;96844;-28
2023/01/06 06:57:26;;;;;;;0.68;0.57;;;;;;;9.78;100.00;101655.56;5054869;27;98147;-28
2023/01/06 06:59:52;;;;;;;0.98;0.50;;;;;;;9.81;100.00;101641.88;5055359;27;97824;-28
2023/01/06 07:02:17;;;;;;;0.90;0.60;;;;;;;9.79;100.00;101655.47;5055201;27;96597;-29
2023/01/06 07:04:42;;;;;;;0.93;0.60;;;;;;;9.82;100.00;101656.28;5055050;27;96795;-29
2023/01/06 07:07:08;;;;;;;3.40;0.85;;;;;;;9.78;100.00;101651.00;5054278;27;101648;-29
2023/01/06 07:09:33;;;;;;;0.52;0.50;;;;;;;9.83;100.00;101660.75;5058008;27;97185;-29
2023/01/06 07:11:58;;;;;;;1.85;0.70;;;;;;;9.82;100.00;101659.88;5058415;27;97571;-28
2023/01/06 07:14:24;;;;;;;3.88;0.70;;;;;;;9.84;100.00;101673.31;5058713;27;96829;-28
2023/01/06 07:16:49;;;;;;;3.72;0.60;;;;;;;9.82;100.00;101670.72;5058444;27;104039;-29
2023/01/06 07:19:14;;;;;;;1.27;0.70;;;;;;;9.79;100.00;101677.09;5057981;27;111043;-28
2023/01/06 07:21:40;;;;;;;0.32;0.32;;;;;;;9.79;100.00;101670.81;5058417;27;96931;-29
2023/01/06 07:24:05;;;;;;;3.38;0.60;;;;;;;9.78;100.00;101678.06;5058679;27;96766;-28
2023/01/06 07:26:30;;;;;;;5.68;0.60;;;;;;;9.78;100.00;101675.38;5057807;27;99768;-29
2023/01/06 07:28:56;;;;;;;2.70;0.73;;;;;;;9.80;100.00;101683.41;5058239;27;107808;-29
2023/01/06 07:31:21;;;;;;;1.45;0.68;;;;;;;9.79;100.00;101687.06;5058087;27;96696;-28
2023/01/06 07:33:46;;;;;;;2.10;0.38;;;;;;;9.79;100.00;101692.47;5058423;27;96905;-28
2023/01/06 07:36:12;;;;;;;1.05;0.50;;;;;;;9.79;100.00;101697.88;5057897;27;98878;-29
2023/01/06 07:38:37;;;;;;;0.95;0.30;;;;;;;9.78;100.00;101691.59;5057859;27;97766;-28
2023/01/06 07:41:03;;;;;;;0.35;0.25;;;;;;;9.81;100.00;101703.22;5058128;27;96545;-28
2023/01/06 07:43:28;;;;;;;1.02;0.43;;;;;;;9.82;100.00;101707.69;5058087;27;96833;-29
2023/01/06 07:45:54;;;;;;;2.22;0.30;;;;;;;9.83;100.00;101714.88;5057663;27;99366;-28
2023/01/06 07:48:19;;;;;;;4.88;0.93;;;;;;;9.83;100.00;101718.44;5058005;27;99335;-28
2023/01/06 07:50:44;;;;;;;2.55;0.88;;;;;;;9.84;100.00;101722.91;5058197;27;96617;-29
2023/01/06 07:53:10;;;;;;;2.28;0.30;;;;;;;9.79;100.00;101706.88;5057926;27;96822;-31
2023/01/06 07:55:36;;;;;;;1.13;0.20;;;;;;;9.79;100.00;101712.28;5055829;27;100909;-29
2023/01/06 07:58:06;;;;;;;1.23;0.60;;;;;;;9.82;100.00;101713.09;5056187;27;100814;-29
2023/01/06 08:00:31;;;;;;;0.88;0.55;;;;;;;9.79;100.00;101719.53;5057905;27;96651;-29
2023/01/06 08:02:57;;;;;;;4.28;0.43;;;;;;;9.78;100.00;101715.94;5056500;27;96839;-29
2023/01/06 08:05:22;;;;;;;0.88;0.50;;;;;;;9.78;100.00;101726.78;5057571;27;97498;-28
2023/01/06 08:07:47;;;;;;;3.60;0.55;;;;;;;9.74;100.00;101726.97;5057054;27;99347;-28
2023/01/06 08:10:13;;;;;;;0.82;0.40;;;;;;;9.73;100.00;101731.50;5057922;27;96613;-29
2023/01/06 08:12:38;;;;;;;5.10;0.45;;;;;;;9.70;100.00;101737.06;5057954;27;96827;-28
2023/01/06 08:15:04;;;;;;;4.10;0.40;;;;;;;9.74;100.00;101751.31;5057438;27;97489;-29
2023/01/06 08:17:30;;;;;;;2.88;0.70;;;;;;;9.71;100.00;101752.34;5055840;27;102328;-29
2023/01/06 08:19:55;;;;;;;8.63;0.63;;;;;;;9.73;100.00;101765.81;5055586;27;96661;-28
2023/01/06 08:22:20;;;;;;;2.00;0.60;;;;;;;9.75;100.00;101782.84;5057054;27;96959;-29
2023/01/06 08:24:46;;;;;;;4.30;0.70;;;;;;;9.69;100.00;101766.88;5056958;27;105793;-29
2023/01/06 08:27:11;;;;;;;3.10;0.30;;;;;;;9.69;99.96;101780.41;5056914;27;97910;-28
2023/01/06 08:29:36;;;;;;;1.13;0.43;;;;;;;9.68;99.60;101787.66;5057708;27;96451;-29
2023/01/06 08:32:02;;;;;;;4.30;0.63;;;;;;;9.62;99.57;101787.91;5057358;27;96494;-28
2023/01/06 08:34:27;;;;;;;2.13;0.32;;;;;;;9.62;99.32;101790.59;5057265;27;97937;-29
2023/01/06 08:36:52;;;;;;;0.85;0.30;;;;;;;9.54;98.79;101784.66;5056999;27;103038;-28
2023/01/06 08:39:17;;;;;;;0.70;0.35;;;;;;;9.59;98.87;101798.84;5057075;27;96579;-28
2023/01/06 08:41:43;;;;;;;1.45;0.30;;;;;;;9.59;98.48;101797.97;5057328;27;96760;-28
2023/01/06 08:44:08;;;;;;;1.02;0.43;;;;;;;9.56;98.42;101791.75;5056449;27;97975;-29
2023/01/06 08:46:33;;;;;;;1.88;0.30;;;;;;;9.53;98.39;101800.00;5056699;27;99202;-28
2023/01/06 08:48:59;;;;;;;2.22;0.60;;;;;;;9.53;98.62;101800.00;5057107;27;96436;-29
2023/01/06 08:51:27;;;;;;;0.65;0.35;;;;;;;9.56;98.44;101812.50;5057008;27;96730;-29
2023/01/06 08:53:53;;;;;;;0.22;0.17;;;;;;;9.51;98.05;101799.19;5056732;27;97996;-31
2023/01/06 08:56:24;;;;;;;4.25;0.47;;;;;;;9.50;97.93;101807.34;5055179;27;100828;-29
2023/01/06 08:58:58;;;;;;;1.50;0.43;;;;;;;9.48;96.85;101814.63;5055696;27;96533;-28
2023/01/06 09:01:26;;;;;;;2.40;0.47;;;;;;;9.50;97.05;101823.56;5057503;27;96514;-28
2023/01/06 09:03:52;;;;;;;1.35;0.32;;;;;;;9.49;96.63;101822.69;5055188;27;100837;-29
2023/01/06 09:06:19;;;;;;;0.32;0.22;;;;;;;9.48;96.21;101833.56;5055227;27;100959;-28
2023/01/06 09:08:47;;;;;;;2.92;0.73;;;;;;;9.47;96.17;101826.41;5054904;27;96559;-29
2023/01/06 09:11:13;;;;;;;0.75;0.22;;;;;;;9.45;95.50;101840.00;5055389;27;96867;-28
2023/01/06 09:13:39;;;;;;;2.30;0.20;;;;;;;9.45;94.77;101839.13;5055047;27;101029;-28
2023/01/06 09:16:08;;;;;;;1.38;0.30;;;;;;;9.45;94.64;101850.81;5056595;27;97869;-29
2023/01/06 09:18:34;;;;;;;0.95;0.30;;;;;;;9.44;93.80;101853.56;5057039;27;96539;-29
2023/01/06 09:21:00;;;;;;;1.08;0.22;;;;;;;9.47;94.49;101856.16;5055203;27;96800;-29
2023/01/06 09:23:25;;;;;;;2.25;0.52;;;;;;;9.51;94.26;101860.47;5055946;27;99466;-29
2023/01/06 09:25:51;;;;;;;0.47;0.20;;;;;;;9.50;93.87;101862.31;5056466;27;97866;-27
2023/01/06 09:28:16;;;;;;;1.27;0.40;;;;;;;9.52;93.06;101862.25;5056595;27;96535;-28
2023/01/06 09:30:41;;;;;;;0.30;0.13;;;;;;;9.55;93.25;101854.88;5055991;27;96735;-29
2023/01/06 09:33:07;;;;;;;0.38;0.17;;;;;;;9.63;93.57;101856.41;5055368;27;99273;-29
2023/01/06 09:35:32;;;;;;;2.25;0.20;;;;;;;9.64;93.79;101856.34;5055858;27;99174;-31
2023/01/06 09:37:58;;;;;;;0.28;0.20;;;;;;;9.68;92.45;101854.41;5056274;27;96574;-28
2023/01/06 09:40:31;;;;;;;1.40;0.40;;;;;;;9.78;93.12;101863.88;5056218;27;96771;-28
2023/01/06 09:43:05;;;;;;;0.32;0.28;;;;;;;9.87;92.27;101859.94;5054707;27;101106;-28
2023/01/06 09:45:38;;;;;;;3.88;0.60;;;;;;;9.98;92.31;101857.63;5054513;27;100754;-31
2023/01/06 09:48:09;;;;;;;1.10;0.43;;;;;;;10.14;92.54;101864.13;5054895;27;96511;-30
2023/01/06 09:50:43;;;;;;;0.23;0.10;;;;;;;10.39;92.55;101860.38;5055319;27;96746;-29
2023/01/06 09:53:18;;;;;;;0.93;0.50;;;;;;;10.59;90.72;101873.91;5054485;27;100993;-29
2023/01/06 09:55:49;;;;;;;1.17;0.35;;;;;;;10.66;90.21;101876.38;5055700;27;97831;-29
2023/01/06 09:58:17;;;;;;;0.73;0.30;;;;;;;10.73;90.01;101867.88;5055682;27;96676;-28
2023/01/06 10:00:48;;;;;;;0.95;0.40;;;;;;;10.80;89.62;101865.78;5054609;27;96926;-28
2023/01/06 10:03:16;;;;;;;1.50;0.38;;;;;;;10.86;89.87;101875.44;5054171;27;101252;-28
2023/01/06 10:05:44;;;;;;;0.22;0.20;;;;;;;11.00;88.83;101867.53;5055576;27;99284;-29
2023/01/06 10:08:25;;;;;;;1.27;0.28;;;;;;;11.16;89.13;101873.13;5056264;27;97207;-28
2023/01/06 10:11:13;;;;;;;2.10;0.38;;;;;;;11.24;87.74;101877.22;5054585;27;96831;-29
2023/01/06 10:13:45;;;;;;;0.57;0.20;;;;;;;11.38;88.76;101875.69;5054168;27;100929;-29
2023/01/06 10:16:27;;;;;;;;;;;;;;;11.45;85.90;101879.84;5056495;27;97920;-29
2023/01/06 10:19:30;;;;;;;0.20;0.03;;;;;;;11.48;87.28;101886.00;5054691;27;96536;-28
2023/01/06 10:22:12;;;;;;;5.05;0.20;;;;;;;11.55;86.60;101883.00;5055864;27;96835;-29
2023/01/06 10:24:43;;;;;;;0.57;0.20;;;;;;;11.59;86.05;101890.91;5053502;27;100939;-29
2023/01/06 10:27:23;;;;;;;3.70;0.80;;;;;;;11.60;86.05;101886.34;5054811;27;98007;-29
2023/01/06 10:29:53;;;;;;;1.55;0.40;;;;;;;11.69;86.01;101892.22;5055479;27;96495;-28
2023/01/06 10:32:20;;;;;;;0.45;0.20;;;;;;;11.73;86.41;101881.19;5054244;27;96700;-29
2023/01/06 10:34:48;;;;;;;0.73;0.32;;;;;;;11.96;85.72;101882.78;5053707;27;101126;-29
2023/01/06 10:37:24;;;;;;;0.73;0.20;;;;;;;12.16;85.18;101884.50;5053766;27;101259;-29
2023/01/06 10:40:01;;;;;;;0.80;0.40;;;;;;;12.23;84.22;101881.38;5053632;27;96791;-29
2023/01/06 10:42:56;;;;;;;0.30;0.22;;;;;;;12.44;83.74;101876.66;5053405;27;96925;-29
2023/01/06 10:45:33;;;;;;;1.63;0.25;;;;;;;12.57;82.88;101867.88;5053670;27;99094;-28
2023/01/06 10:48:00;;;;;;;5.88;0.43;;;;;;;12.68;82.60;101874.47;5053545;27;101000;-29
2023/01/06 10:50:26;;;;;;;1.83;0.40;;;;;;;12.65;81.88;101880.06;5053126;27;96712;-29
2023/01/06 10:52:52;;;;;;;1.40;0.32;;;;;;;12.57;82.25;101876.00;5053903;27;96887;-29
2023/01/06 10:55:24;;;;;;;0.65;0.13;;;;;;;12.73;81.68;101866.94;5053365;27;98802;-29
2023/01/06 10:57:51;;;;;;;4.38;0.52;;;;;;;12.60;81.96;101875.84;5055017;27;97884;-29
2023/01/06 11:00:23;;;;;;;1.35;0.40;;;;;;;12.39;82.80;101881.44;5053815;27;96614;-29
2023/01/06 11:02:56;;;;;;;0.22;0.10;;;;;;;12.65;79.90;101874.63;5053565;27;96856;-29
2023/01/06 11:05:24;;;;;;;0.95;0.40;;;;;;;12.72;80.84;101889.63;5054899;27;97966;-28
2023/01/06 11:08:04;;;;;;;1.30;0.30;;;;;;;12.64;80.95;101888.31;5053522;27;100762;-29
2023/01/06 11:10:40;;;;;;;1.45;0.28;;;;;;;12.78;80.38;101884.88;5053655;27;96774;-29
2023/01/06 11:13:22;;;;;;;0.82;0.38;;;;;;;12.88;80.86;101880.66;5055187;27;96608;-29
2023/01/06 11:15:48;;;;;;;0.45;0.22;;;;;;;13.03;79.21;101873.50;5052749;27;101041;-29
2023/01/06 11:18:20;;;;;;;3.30;0.73;;;;;;;12.91;79.61;101883.22;5053203;27;100998;-30
2023/01/06 11:21:01;;;;;;;2.42;0.30;;;;;;;12.82;79.30;101883.72;5053631;27;96876;-29
2023/01/06 11:23:28;;;;;;;0.45;0.22;;;;;;;12.75;79.05;101875.91;5054904;27;96975;-29
2023/01/06 11:26:01;;;;;;;0.65;0.30;;;;;;;12.60;80.75;101874.00;5052762;27;101457;-29
2023/01/06 11:28:27;;;;;;;0.60;0.25;;;;;;;12.43;80.66;101866.75;5053197;27;100426;-28
2023/01/06 11:31:03;;;;;;;3.70;0.75;;;;;;;12.18;81.12;101864.47;5054996;27;96489;-30
2023/01/06 11:33:31;;;;;;;0.73;0.17;;;;;;;12.12;81.23;101862.03;5055130;27;96757;-29
2023/01/06 11:36:04;;;;;;;0.63;0.32;;;;;;;12.09;81.75;101859.50;5052915;27;100748;-29
2023/01/06 11:38:30;;;;;;;2.38;0.38;;;;;;;12.05;80.99;101861.47;5054576;27;97344;-29
2023/01/06 11:40:55;;;;;;;1.17;0.20;;;;;;;12.05;80.17;101861.47;5053836;27;96523;-29